createdAt,value
2022-11-13T00:00:03.127Z,78
2022-11-13T00:20:03.246Z,78
2022-11-13T00:40:02.852Z,78
2022-11-13T01:00:03.637Z,78
2022-11-13T01:20:03.087Z,78
2022-11-13T01:40:02.729Z,78
2022-11-13T02:00:03.387Z,78
2022-11-13T02:20:03.600Z,78
2022-11-13T02:40:03.424Z,78
2022-11-13T03:00:03.200Z,78
2022-11-13T03:20:03.052Z,77
2022-11-13T03:40:02.746Z,77
2022-11-13T04:00:03.427Z,77
2022-11-13T04:20:03.560Z,77
2022-11-13T04:40:03.147Z,77
2022-11-13T05:00:02.814Z,77
2022-11-13T05:20:02.771Z,77
2022-11-13T05:40:03.551Z,77
2022-11-13T06:00:03.120Z,77
2022-11-13T06:20:02.802Z,77
2022-11-13T06:40:03.583Z,77
2022-11-13T07:00:03.304Z,78
2022-11-13T07:20:03.362Z,78
2022-11-13T07:40:02.936Z,78
2022-11-13T08:00:02.786Z,78
2022-11-13T08:20:02.715Z,78
2022-11-13T08:40:03.349Z,78
2022-11-13T09:00:03.044Z,78
2022-11-13T09:20:06.069Z,77
2022-11-13T09:40:03.495Z,76
2022-11-13T10:00:03.195Z,75
2022-11-13T10:20:03.315Z,74
2022-11-13T10:40:02.894Z,72
2022-11-13T11:00:02.624Z,72
2022-11-13T11:20:03.367Z,70
2022-11-13T11:40:03.159Z,67
2022-11-13T12:00:03.198Z,66
2022-11-13T12:20:03.019Z,65
2022-11-13T12:40:02.822Z,64
2022-11-13T13:00:03.470Z,64
2022-11-13T13:20:03.512Z,65
2022-11-13T13:40:03.470Z,65
2022-11-13T14:00:03.520Z,66
2022-11-13T14:20:03.684Z,67
2022-11-13T14:40:03.239Z,68
2022-11-13T15:00:02.921Z,69
2022-11-13T15:20:09.938Z,70
2022-11-13T15:40:03.024Z,71
2022-11-13T16:00:02.799Z,72
2022-11-13T16:20:02.921Z,73
2022-11-13T16:40:02.827Z,73
2022-11-13T17:00:03.689Z,74
2022-11-13T17:20:02.885Z,74
2022-11-13T17:40:04.674Z,75
2022-11-13T18:00:07.577Z,75
2022-11-13T18:20:03.244Z,76
2022-11-13T18:40:02.965Z,76
2022-11-13T19:00:02.818Z,76
2022-11-13T19:20:03.612Z,76
2022-11-13T19:40:03.328Z,76
2022-11-13T20:00:04.503Z,77
2022-11-13T20:20:05.785Z,77
2022-11-13T20:40:03.916Z,77
2022-11-13T21:00:02.673Z,76
2022-11-13T21:20:03.107Z,77
2022-11-13T21:40:02.820Z,77
2022-11-13T22:00:03.356Z,77
2022-11-13T22:20:03.232Z,77
2022-11-13T22:40:02.849Z,77
2022-11-13T23:00:03.945Z,77
2022-11-13T23:20:02.746Z,77
2022-11-13T23:40:03.369Z,77
